Time;durP1;ratioP1;P1;durP2;ratioP2;P2;SDS_P1;SDS_P2;PMS_P1;PMS_P2;Temp;Humidity;BMP_temperature;BMP_pressure;BME280_temperature;BME280_humidity;BME280_pressure;Samples;Min_cycle;Max_cycle;Signal;HPM_P1;HPM_P2
2022/12/27 00:00:09;;;;;;;2.03;1.10;;;6.10;99.90;;;7.99;58.25;98440.03;5043138;28;20385;-53
2022/12/27 00:02:43;;;;;;;2.60;1.10;;;6.00;99.90;;;8.14;58.31;98440.56;5042839;28;20242;-54
2022/12/27 00:05:12;;;;;;;2.33;1.20;;;6.00;99.90;;;8.27;57.72;98448.34;5041875;28;20045;-53
2022/12/27 00:07:40;;;;;;;1.00;0.90;;;5.90;99.90;;;8.15;57.46;98446.72;5043036;28;20049;-54
2022/12/27 00:10:09;;;;;;;1.73;1.13;;;5.90;99.90;;;8.15;57.48;98450.22;5042581;28;20049;-51
2022/12/27 00:12:37;;;;;;;1.27;1.03;;;5.80;99.90;;;7.92;57.70;98448.59;5042180;28;20239;-54
2022/12/27 00:15:05;;;;;;;1.03;0.93;;;5.70;99.90;;;7.91;57.44;98450.41;5042699;28;20060;-55
2022/12/27 00:17:33;;;;;;;2.50;1.30;;;5.70;99.90;;;7.42;58.67;98457.81;5043069;28;20348;-54
2022/12/27 00:20:01;;;;;;;3.37;0.93;;;5.50;99.90;;;7.65;57.50;98476.34;5042805;28;20051;-52
2022/12/27 00:22:39;;;;;;;2.43;1.33;;;5.50;99.90;;;7.21;58.28;98462.16;5042507;28;20339;-54
2022/12/27 00:25:08;;;;;;;5.07;1.10;;;5.40;99.90;;;7.41;57.80;98469.41;5041826;28;20041;-54
2022/12/27 00:27:37;;;;;;;2.33;1.00;;;5.40;99.90;;;7.55;57.00;98468.28;5042474;28;20049;-50
2022/12/27 00:30:06;;;;;;;1.23;0.47;;;5.40;99.90;;;7.19;57.47;98480.84;5042490;28;20056;-53
2022/12/27 00:32:34;;;;;;;2.63;1.13;;;5.20;99.90;;;7.34;57.83;98480.59;5040886;28;20047;-51
2022/12/27 00:35:02;;;;;;;1.07;0.80;;;5.20;99.90;;;7.75;56.44;98481.75;5042624;28;20047;-55
2022/12/27 00:37:30;;;;;;;3.50;1.10;;;5.30;99.90;;;7.63;56.69;98496.84;5042554;28;20052;-55
2022/12/27 00:39:59;;;;;;;2.90;1.63;;;5.20;99.90;;;7.60;57.25;98497.94;5042425;28;20033;-55
2022/12/27 00:42:26;;;;;;;5.10;1.00;;;5.10;99.90;;;7.80;56.21;98504.28;5042346;28;20047;-52
2022/12/27 00:44:54;;;;;;;2.67;1.30;;;5.10;99.90;;;7.81;56.29;98513.94;5042678;28;20045;-51
2022/12/27 00:47:22;;;;;;;1.27;0.80;;;5.10;99.90;;;7.60;56.63;98512.97;5041303;28;20103;-54
2022/12/27 00:49:50;;;;;;;1.93;1.30;;;5.00;99.90;;;7.55;56.80;98521.28;5042032;28;20055;-55
2022/12/27 00:52:17;;;;;;;1.80;1.07;;;5.00;99.90;;;7.43;57.00;98528.41;5040825;28;20068;-54
2022/12/27 00:54:45;;;;;;;3.73;1.50;;;5.00;99.90;;;7.65;56.34;98529.38;5042591;28;20037;-53
2022/12/27 00:57:13;;;;;;;2.27;1.30;;;5.00;99.90;;;7.84;55.99;98537.53;5042218;28;20049;-54
2022/12/27 00:59:40;;;;;;;2.83;1.23;;;5.00;99.90;;;7.71;56.13;98543.94;5042194;28;20055;-53
2022/12/27 01:02:08;;;;;;;2.20;1.27;;;5.00;99.90;;;7.60;56.38;98543.00;5042644;28;20049;-54
2022/12/27 01:04:36;;;;;;;3.40;1.50;;;4.90;99.90;;;7.53;56.78;98544.41;5041714;28;20052;-55
2022/12/27 01:07:04;;;;;;;2.83;1.23;;;4.80;99.90;;;7.42;57.21;98547.06;5042087;28;20053;-53
2022/12/27 01:09:32;;;;;;;4.10;1.40;;;4.80;99.90;;;7.27;57.14;98549.94;5042232;28;20045;-54
2022/12/27 01:11:59;;;;;;;2.67;1.43;;;4.70;99.90;;;7.01;57.80;98551.09;5041842;28;20041;-55
2022/12/27 01:14:27;;;;;;;3.40;1.57;;;4.70;99.90;;;7.54;56.35;98539.97;5041824;28;20041;-51
2022/12/27 01:16:55;;;;;;;3.50;1.50;;;4.70;99.90;;;7.68;55.26;98551.16;5040838;28;20262;-54
2022/12/27 01:19:23;;;;;;;6.07;1.73;;;4.70;99.90;;;7.42;55.49;98555.00;5041968;28;20037;-55
2022/12/27 01:21:51;;;;;;;2.37;1.17;;;4.60;99.90;;;7.44;56.33;98558.38;5042016;28;20045;-55
2022/12/27 01:24:19;;;;;;;3.97;1.33;;;4.60;99.90;;;7.38;55.27;98558.84;5048323;28;20049;-55
2022/12/27 01:26:46;;;;;;;3.03;1.07;;;4.60;99.90;;;7.55;55.00;98562.84;5048611;28;20045;-55
2022/12/27 01:29:14;;;;;;;5.37;1.37;;;4.60;99.90;;;7.62;55.42;98566.72;5048031;28;20059;-53
2022/12/27 01:31:42;;;;;;;2.67;1.73;;;4.60;99.90;;;7.64;54.72;98578.06;5048254;28;20053;-53
2022/12/27 01:34:10;;;;;;;1.63;0.87;;;4.60;99.90;;;7.47;55.02;98582.84;5048741;28;20096;-51
2022/12/27 01:36:38;;;;;;;4.00;1.17;;;4.60;99.90;;;7.53;54.79;98580.69;5047381;28;20045;-53
2022/12/27 01:39:07;;;;;;;2.53;1.20;;;4.60;99.90;;;7.62;55.05;98586.13;5047372;28;20053;-55
2022/12/27 01:44:40;;;;;;;5.83;1.93;;;4.50;99.90;;;7.35;55.53;98597.03;5047165;28;20045;-53
2022/12/27 01:47:33;;;;;;;2.72;1.60;;;4.50;99.90;;;7.45;55.30;98594.53;5048332;28;20044;-55
2022/12/27 01:50:10;;;;;;;2.00;1.30;;;4.50;99.90;;;7.39;55.22;98595.84;5045436;28;20052;-55
2022/12/27 01:52:59;;;;;;;2.43;1.10;;;4.50;99.90;;;7.24;55.11;98592.53;5041249;28;20052;-54
2022/12/27 01:55:58;;;;;;;2.40;1.30;;;4.50;99.90;;;7.27;55.02;98592.31;5047350;28;20369;-54
2022/12/27 01:58:43;;;;;;;2.70;1.10;;;4.40;99.90;;;7.18;55.42;98600.97;5048145;28;20041;-55
2022/12/27 02:01:21;;;;;;;4.23;1.30;;;4.40;99.90;;;6.96;55.99;98590.28;5046998;28;20045;-53
2022/12/27 02:04:11;;;;;;;3.20;1.40;;;4.30;99.90;;;7.03;55.73;98595.00;5047922;28;20343;-51
2022/12/27 02:06:40;;;;;;;4.37;1.53;;;4.30;99.90;;;7.06;55.46;98589.50;5041611;28;20247;-54
2022/12/27 02:09:37;;;;;;;1.67;1.30;;;4.20;99.90;;;6.87;56.29;98594.50;5047020;28;20049;-54
2022/12/27 02:12:08;;;;;;;1.70;1.00;;;4.10;99.90;;;6.83;56.27;98596.53;5044280;28;20061;-55
2022/12/27 02:14:40;;;;;;;2.20;1.03;;;4.10;99.90;;;7.05;55.72;98602.84;5046744;28;20047;-52
2022/12/27 02:17:28;;;;;;;3.80;1.30;;;4.10;99.90;;;6.75;56.89;98609.47;5048073;28;20041;-53
2022/12/27 02:20:23;;;;;;;2.47;1.40;;;4.00;99.90;;;6.92;56.23;98605.59;5047240;28;20348;-53
2022/12/27 02:27:03;;;;;;;2.30;1.60;;;4.00;99.90;;;6.88;57.09;98617.34;5046281;28;20056;-53
2022/12/27 02:30:06;;;;;;;1.53;1.17;;;4.00;99.90;;;7.10;56.02;98621.91;5038801;28;20354;-54
2022/12/27 02:32:48;;;;;;;3.70;1.30;;;4.00;99.90;;;7.22;55.45;98622.78;5039096;28;20043;-53
2022/12/27 02:35:34;;;;;;;3.20;1.10;;;4.10;99.90;;;7.32;55.70;98625.56;5044531;28;20233;-53
2022/12/27 02:38:15;;;;;;;2.20;1.27;;;4.20;99.90;;;7.42;55.33;98623.88;5043745;28;20236;-55
2022/12/27 02:59:31;;;;;;;3.47;1.17;;;4.20;99.90;;;7.29;54.27;98631.94;5022282;28;20056;-51
2022/12/27 03:06:38;;;;;;;3.47;1.37;;;4.30;99.90;;;7.43;54.19;98636.19;5041824;28;20049;-54
2022/12/27 03:08:58;;;;;;;2.13;1.80;;;4.20;99.90;;;7.47;53.89;98635.81;5037597;28;20302;-53
2022/12/27 03:17:55;;;;;;;1.37;1.00;;;4.20;99.90;;;7.49;54.38;98643.66;5043861;28;20355;-54
2022/12/27 03:26:00;;;;;;;2.47;1.20;;;4.20;99.90;;;7.47;53.76;98649.06;5043072;28;20056;-54
2022/12/27 03:34:30;;;;;;;3.43;1.50;;;4.20;99.90;;;7.51;53.95;98643.56;5042683;28;20048;-52
2022/12/27 03:40:38;;;;;;;4.27;1.30;;;4.20;99.90;;;7.43;53.36;98647.63;5039882;28;20049;-60
2022/12/27 03:43:15;;;;;;;2.90;1.45;;;4.20;99.90;;;7.37;53.88;98655.22;5042210;28;20049;-60
2022/12/27 03:49:13;;;;;;;2.17;1.20;;;4.10;99.90;;;7.42;53.69;98656.53;5035848;28;20041;-61
2022/12/27 03:52:06;;;;;;;2.60;1.10;;;4.20;99.90;;;7.46;52.96;98655.34;5035035;28;20080;-60
2022/12/27 03:54:40;;;;;;;2.70;1.10;;;4.10;99.90;;;7.46;53.51;98657.13;5034160;28;20056;-60
2022/12/27 03:57:13;;;;;;;1.80;1.27;;;4.10;99.90;;;7.45;53.75;98666.06;5042354;28;20041;-60
2022/12/27 03:59:41;;;;;;;4.55;1.50;;;4.10;99.90;;;7.42;53.80;98674.22;5042328;28;20037;-61
2022/12/27 04:02:09;;;;;;;3.57;1.33;;;4.00;99.90;;;7.39;53.20;98672.66;5043137;28;20049;-60
2022/12/27 04:04:37;;;;;;;2.70;1.50;;;4.10;99.90;;;7.36;53.74;98670.25;5041769;28;20212;-60
2022/12/27 04:07:06;;;;;;;2.30;0.93;;;4.00;99.90;;;7.36;53.50;98672.88;5043170;28;20053;-60
2022/12/27 04:34:45;;;;;;;1.60;1.10;;;3.60;99.90;;;7.00;53.79;98650.88;5041961;28;20053;-60
2022/12/27 04:37:18;;;;;;;2.17;1.07;;;3.70;99.90;;;6.99;53.73;98648.31;5041526;28;20355;-60
2022/12/27 04:56:33;;;;;;;4.30;1.97;;;3.70;99.90;;;7.05;53.12;98674.34;5041035;28;20041;-60
2022/12/27 05:02:03;;;;;;;1.67;1.10;;;3.70;99.90;;;6.99;52.90;98662.41;5035557;28;20359;-60
2022/12/27 05:04:35;;;;;;;4.03;1.55;;;3.70;99.90;;;6.98;52.70;98668.66;5041742;28;20038;-60
2022/12/27 05:15:45;;;;;;;4.87;1.57;;;3.60;99.90;;;6.92;53.06;98678.84;5044483;28;20041;-60
2022/12/27 05:18:13;;;;;;;1.50;1.23;;;3.50;99.90;;;6.87;52.79;98680.03;5041756;28;20045;-60
2022/12/27 05:20:41;;;;;;;4.67;1.50;;;3.50;99.90;;;6.87;52.73;98682.69;5032984;28;20340;-60
2022/12/27 05:25:54;;;;;;;3.17;2.20;;;3.40;99.90;;;6.73;53.05;98687.28;5036580;28;20052;-60
2022/12/27 05:28:22;;;;;;;8.13;2.77;;;3.40;99.90;;;6.70;53.06;98694.50;5040543;28;20055;-60
2022/12/27 05:30:50;;;;;;;7.50;3.67;;;3.30;99.90;;;6.66;52.95;98690.38;5041732;28;20247;-60
2022/12/27 05:33:18;;;;;;;4.10;2.90;;;3.20;99.90;;;6.61;53.18;98689.00;5041469;28;20267;-60
2022/12/27 05:35:46;;;;;;;4.17;2.53;;;3.20;99.90;;;6.61;52.85;98696.94;5041532;28;20343;-60
2022/12/27 05:38:13;;;;;;;4.10;2.40;;;3.20;99.90;;;6.63;52.82;98705.63;5041570;28;20374;-60
2022/12/27 05:40:41;;;;;;;6.50;2.57;;;3.20;99.90;;;6.64;52.26;98702.88;5034451;28;20348;-60
2022/12/27 05:43:09;;;;;;;4.50;2.93;;;3.20;99.90;;;6.65;53.25;98703.72;5041072;28;20060;-60
2022/12/27 05:45:37;;;;;;;6.00;2.20;;;3.20;99.90;;;6.67;52.51;98707.97;5041772;28;20251;-61
2022/12/27 05:48:05;;;;;;;6.23;2.63;;;3.30;99.90;;;6.67;52.51;98700.03;5040691;28;20049;-60
2022/12/27 05:50:32;;;;;;;8.60;2.60;;;3.30;99.90;;;6.67;53.07;98697.38;5040632;28;20052;-61
2022/12/27 05:53:10;;;;;;;6.80;3.53;;;3.30;99.90;;;6.68;52.66;98707.00;5041219;28;20340;-60
2022/12/27 05:55:38;;;;;;;2.80;2.10;;;3.30;99.90;;;6.67;53.10;98713.25;5041540;28;20332;-61
2022/12/27 05:58:06;;;;;;;3.37;2.47;;;3.30;99.90;;;6.66;53.18;98716.84;5041718;28;20255;-60
2022/12/27 06:00:34;;;;;;;2.90;2.10;;;3.30;99.90;;;6.68;53.36;98716.75;5040460;28;20048;-60
2022/12/27 06:03:02;;;;;;;4.17;1.60;;;3.30;99.90;;;6.65;52.94;98715.16;5041177;28;20060;-60
2022/12/27 06:05:30;;;;;;;2.40;1.80;;;3.30;99.90;;;6.65;53.08;98711.66;5039846;28;20064;-60
2022/12/27 06:07:58;;;;;;;3.90;2.10;;;3.30;99.90;;;6.64;53.59;98712.63;5041421;28;20049;-60
2022/12/27 06:10:26;;;;;;;2.23;1.70;;;3.30;99.90;;;6.63;53.88;98721.50;5044358;28;20343;-61
2022/12/27 06:12:54;;;;;;;6.17;2.20;;;3.30;99.90;;;6.61;53.16;98710.19;5044986;28;20356;-60
2022/12/27 06:15:22;;;;;;;3.57;2.60;;;3.30;99.90;;;6.65;52.84;98720.47;5045238;28;20049;-60
2022/12/27 06:17:49;;;;;;;9.27;2.50;;;3.30;99.90;;;6.67;53.36;98713.25;5045082;28;20048;-60
2022/12/27 06:20:17;;;;;;;3.17;1.60;;;3.40;99.90;;;6.66;53.44;98718.66;5043998;28;20046;-60
2022/12/27 06:22:45;;;;;;;3.20;1.40;;;3.40;99.90;;;6.60;53.01;98714.63;5044472;28;20239;-60
2022/12/27 06:25:13;;;;;;;2.63;1.40;;;3.30;99.90;;;6.62;52.55;98717.19;5044931;28;20049;-60
2022/12/27 06:27:41;;;;;;;2.83;1.17;;;3.30;99.90;;;6.66;53.36;98723.94;5044097;28;20049;-60
2022/12/27 06:30:11;;;;;;;2.20;1.30;;;3.40;99.90;;;6.59;53.56;98723.56;5044976;28;20049;-60
2022/12/27 06:32:38;;;;;;;1.17;0.90;;;3.30;99.90;;;6.60;53.51;98721.75;5044585;28;20359;-60
2022/12/27 06:35:07;;;;;;;4.63;1.27;;;3.30;99.90;;;6.66;52.89;98716.84;5044892;28;20041;-60
2022/12/27 06:37:35;;;;;;;2.40;1.37;;;3.40;99.90;;;6.65;53.32;98724.88;5043805;28;20041;-60
2022/12/27 06:40:03;;;;;;;4.33;2.13;;;3.40;99.90;;;6.63;53.01;98721.50;5044766;28;20043;-61
2022/12/27 06:42:31;;;;;;;8.73;3.93;;;3.40;99.90;;;6.68;52.86;98724.69;5044297;28;20049;-61
2022/12/27 06:44:59;;;;;;;5.33;2.87;;;3.40;99.90;;;6.69;53.00;98721.94;5043692;28;20251;-60
2022/12/27 06:47:26;;;;;;;4.20;2.37;;;3.50;99.90;;;6.69;53.16;98726.38;5044813;28;20263;-60
2022/12/27 06:49:54;;;;;;;4.63;2.23;;;3.40;99.90;;;6.66;52.70;98724.78;5043613;28;20047;-60
2022/12/27 06:52:22;;;;;;;8.90;3.10;;;3.40;99.90;;;6.64;53.21;98729.34;5043357;28;20053;-60
2022/12/27 06:54:50;;;;;;;8.20;3.33;;;3.40;99.90;;;6.62;52.69;98728.59;5044547;28;20045;-60
2022/12/27 06:57:17;;;;;;;4.87;2.43;;;3.40;99.90;;;6.60;53.08;98729.69;5044511;28;20052;-60
2022/12/27 06:59:45;;;;;;;3.87;2.23;;;3.40;99.90;;;6.56;52.39;98729.06;5036311;28;20044;-60
2022/12/27 07:02:20;;;;;;;4.60;3.17;;;3.30;99.90;;;6.58;52.67;98727.13;5044142;28;20228;-60
2022/12/27 07:04:48;;;;;;;4.03;2.40;;;3.30;99.90;;;6.56;53.13;98731.69;5044414;28;20051;-60
2022/12/27 07:07:16;;;;;;;4.50;2.33;;;3.30;99.90;;;6.56;52.68;98733.50;5043829;28;20071;-60
2022/12/27 07:09:45;;;;;;;3.07;1.70;;;3.20;99.90;;;6.56;52.69;98747.56;5035824;28;20067;-60
2022/12/27 07:12:12;;;;;;;4.27;1.50;;;3.30;99.90;;;6.63;53.42;98754.13;5043380;28;20053;-61
2022/12/27 07:14:40;;;;;;;1.30;1.20;;;3.40;99.90;;;6.67;53.11;98747.66;5043613;28;20249;-60
2022/12/27 07:17:08;;;;;;;6.00;1.30;;;3.50;99.90;;;6.70;52.92;98744.78;5043113;28;20251;-60
2022/12/27 07:19:36;;;;;;;2.90;1.63;;;3.50;99.90;;;6.68;52.87;98746.69;5043433;28;20263;-60
2022/12/27 07:22:03;;;;;;;2.50;1.20;;;3.50;99.90;;;6.69;52.41;98763.44;5043521;28;20221;-60
2022/12/27 07:24:32;;;;;;;2.43;1.23;;;3.50;99.90;;;6.74;52.59;98750.69;5043314;28;20237;-60
2022/12/27 07:27:04;;;;;;;3.67;1.20;;;3.50;99.90;;;6.68;52.74;98751.13;5042799;28;20214;-59
2022/12/27 07:29:31;;;;;;;2.33;1.17;;;3.40;99.90;;;6.62;52.39;98755.06;5043427;28;20049;-60
2022/12/27 07:31:59;;;;;;;2.53;1.07;;;3.40;99.90;;;6.69;52.63;98752.84;5043742;28;20045;-60
2022/12/27 07:34:27;;;;;;;3.03;1.20;;;3.40;99.90;;;6.64;52.17;98763.75;5043040;28;20251;-61
2022/12/27 07:36:55;;;;;;;2.80;1.37;;;3.40;99.90;;;6.61;52.61;98765.75;5043693;28;20029;-60
2022/12/27 07:39:22;;;;;;;1.80;1.10;;;3.30;99.90;;;6.62;52.73;98763.00;5042387;28;20049;-61
2022/12/27 07:41:50;;;;;;;1.57;1.17;;;3.30;99.90;;;6.64;52.35;98769.03;5043064;28;20046;-60
2022/12/27 07:44:18;;;;;;;4.17;1.17;;;3.30;99.90;;;6.62;53.06;98773.59;5043496;28;20057;-60
2022/12/27 07:46:47;;;;;;;1.57;1.17;;;3.30;99.90;;;6.65;52.51;98772.50;5043405;28;20240;-60
2022/12/27 07:49:15;;;;;;;5.43;1.40;;;3.40;99.90;;;6.71;52.48;98769.47;5043382;28;20064;-60
2022/12/27 07:51:44;;;;;;;1.37;0.90;;;3.50;99.90;;;6.77;52.25;98761.06;5039414;28;20053;-60
2022/12/27 07:54:12;;;;;;;2.10;1.20;;;3.60;99.90;;;6.82;52.27;98750.16;5043149;28;20048;-60
2022/12/27 07:56:40;;;;;;;1.80;1.00;;;3.70;99.90;;;6.84;52.11;98750.88;5042129;28;20041;-60
2022/12/27 07:59:12;;;;;;;1.93;1.13;;;3.70;99.90;;;6.86;52.21;98752.47;5043462;28;20045;-60
2022/12/27 08:04:26;;;;;;;1.80;1.20;;;3.80;99.90;;;6.95;52.23;98755.41;5042845;28;20045;-60
2022/12/27 08:07:01;;;;;;;1.60;1.10;;;3.90;98.90;;;6.95;52.01;98760.72;5042848;28;20067;-60
2022/12/27 08:09:35;;;;;;;3.33;1.80;;;3.80;99.20;;;6.98;52.03;98752.53;5041870;28;20055;-60
2022/12/27 08:12:06;;;;;;;4.00;1.37;;;3.80;99.90;;;7.03;52.50;98761.00;5041018;28;20068;-60
2022/12/27 08:14:33;;;;;;;3.40;1.53;;;3.80;99.80;;;7.03;52.11;98753.88;5042273;28;20041;-61
2022/12/27 08:17:19;;;;;;;2.20;1.60;;;3.80;99.90;;;7.06;51.85;98760.78;5041530;28;20053;-60
2022/12/27 08:19:50;;;;;;;2.20;1.20;;;3.90;99.90;;;7.06;52.10;98758.97;5041851;28;20043;-60
2022/12/27 08:22:22;;;;;;;1.70;1.08;;;3.80;99.90;;;7.06;52.23;98761.63;5040501;28;20050;-60
2022/12/27 08:24:50;;;;;;;3.53;1.20;;;3.80;99.90;;;7.13;51.64;98767.28;5033775;28;20132;-60
2022/12/27 08:27:23;;;;;;;2.77;1.10;;;3.80;99.90;;;7.13;51.84;98771.75;5042675;28;20041;-60
2022/12/27 08:29:51;;;;;;;1.90;1.20;;;3.90;99.90;;;7.10;51.64;98768.38;5035293;28;20259;-60
2022/12/27 08:32:18;;;;;;;3.70;1.17;;;3.90;99.90;;;7.10;51.52;98776.31;5041662;28;20257;-60
2022/12/27 08:34:47;;;;;;;1.93;1.30;;;3.90;99.90;;;7.15;52.30;98770.69;5040726;28;20042;-61
2022/12/27 08:37:14;;;;;;;2.83;1.30;;;3.90;99.90;;;7.20;52.32;98767.72;5041539;28;20220;-61
2022/12/27 08:39:42;;;;;;;1.40;1.30;;;4.00;99.90;;;7.23;51.72;98773.63;5042433;28;20052;-60
2022/12/27 08:42:12;;;;;;;2.33;1.03;;;4.00;99.90;;;7.24;51.86;98770.00;5042566;28;20041;-60
2022/12/27 08:44:39;;;;;;;1.97;1.30;;;4.10;99.90;;;7.26;51.43;98776.03;5041036;28;20041;-61
2022/12/27 08:47:07;;;;;;;2.70;1.70;;;4.10;99.90;;;7.30;52.25;98776.66;5042283;28;20061;-60
2022/12/27 08:49:35;;;;;;;1.97;1.10;;;4.10;99.90;;;7.32;51.65;98781.84;5042129;28;20262;-60
2022/12/27 08:52:03;;;;;;;2.93;1.30;;;4.10;99.90;;;7.32;51.63;98772.09;5041098;28;20053;-60
2022/12/27 08:54:31;;;;;;;3.47;1.17;;;4.20;99.90;;;7.37;52.21;98782.38;5040705;28;20047;-59
2022/12/27 08:56:58;;;;;;;1.83;1.13;;;4.20;99.90;;;7.38;51.69;98784.03;5041430;28;20343;-60
2022/12/27 08:59:26;;;;;;;2.70;1.40;;;4.20;99.90;;;7.39;52.10;98781.28;5042176;28;20047;-60
2022/12/27 09:01:54;;;;;;;5.43;1.40;;;4.20;99.90;;;7.38;51.86;98784.03;5042094;28;20043;-60
2022/12/27 09:04:22;;;;;;;2.20;1.23;;;4.20;99.90;;;7.36;51.78;98780.66;5040905;28;20239;-60
2022/12/27 09:06:49;;;;;;;6.87;1.37;;;4.20;99.90;;;7.35;51.97;98785.13;5041997;28;20044;-59
2022/12/27 09:09:17;;;;;;;6.17;1.80;;;4.20;99.90;;;7.41;52.00;98789.13;5042100;28;20056;-60
2022/12/27 09:11:45;;;;;;;5.03;1.90;;;4.30;99.90;;;7.41;51.65;98789.97;5042041;28;20059;-60
2022/12/27 09:14:13;;;;;;;2.90;1.33;;;4.30;99.80;;;7.43;52.00;98788.06;5040598;28;20045;-60
2022/12/27 09:16:41;;;;;;;3.40;1.40;;;4.30;99.90;;;7.44;51.41;98783.59;5040691;28;20056;-59
2022/12/27 09:19:09;;;;;;;3.77;2.63;;;4.30;99.90;;;7.47;51.65;98784.22;5041112;28;20049;-60
2022/12/27 09:21:40;;;;;;;6.90;1.63;;;4.30;99.90;;;7.54;51.29;98799.66;5041492;28;20041;-60
2022/12/27 09:24:13;;;;;;;2.80;1.90;;;4.40;99.90;;;7.59;51.40;98792.22;5040571;28;20053;-60
2022/12/27 09:26:41;;;;;;;2.70;1.77;;;4.50;99.80;;;7.61;51.52;98795.59;5041373;28;20271;-59
2022/12/27 09:29:09;;;;;;;4.80;2.73;;;4.50;98.70;;;7.61;51.28;98799.09;5041141;28;20045;-59
2022/12/27 09:31:37;;;;;;;4.17;1.57;;;4.50;98.80;;;7.62;51.91;98808.75;5041332;28;20046;-60
2022/12/27 09:34:05;;;;;;;5.20;1.60;;;4.60;98.60;;;7.65;51.51;98800.53;5041345;28;20046;-59
2022/12/27 09:36:33;;;;;;;4.40;1.40;;;4.60;98.20;;;7.71;51.90;98788.63;5041600;28;20047;-59
2022/12/27 09:39:00;;;;;;;2.73;1.63;;;4.70;98.80;;;7.75;51.83;98795.41;5041869;28;20041;-59
2022/12/27 09:41:53;;;;;;;3.93;1.70;;;4.70;97.90;;;7.75;51.68;98791.91;5042155;28;20047;-59
2022/12/27 09:44:59;;;;;;;2.77;1.73;;;4.70;96.60;;;7.79;51.05;98791.56;5044625;28;20056;-59
2022/12/27 09:47:54;;;;;;;4.87;2.13;;;4.70;96.80;;;7.79;51.48;98796.00;5044772;28;20045;-59
2022/12/27 09:50:46;;;;;;;4.80;3.87;;;4.80;97.90;;;7.81;51.23;98791.44;5024510;28;20049;-60
2022/12/27 09:53:43;;;;;;;4.17;2.53;;;4.80;98.10;;;7.83;51.41;98794.81;5038864;28;20052;-60
2022/12/27 09:56:19;;;;;;;3.40;1.77;;;4.80;97.80;;;7.93;51.07;98793.19;5039382;28;20056;-60
2022/12/27 09:58:56;;;;;;;3.80;1.73;;;4.80;97.10;;;7.98;51.48;98788.34;5045541;28;20352;-59
2022/12/27 10:01:39;;;;;;;4.00;1.70;;;4.90;98.00;;;8.03;51.51;98788.03;5044319;28;20250;-59
2022/12/27 10:04:12;;;;;;;2.42;1.65;;;5.00;97.50;;;8.07;51.38;98774.41;5039372;28;20053;-60
2022/12/27 10:06:49;;;;;;;4.07;2.67;;;5.00;97.40;;;8.11;51.04;98769.72;5044221;28;20051;-60
2022/12/27 10:09:44;;;;;;;8.03;2.57;;;5.00;97.00;;;8.14;51.29;98781.88;5045042;28;20057;-59
2022/12/27 10:12:36;;;;;;;4.33;1.73;;;5.10;95.60;;;8.18;51.13;98778.03;5039531;28;20378;-60
2022/12/27 10:15:47;;;;;;;4.40;1.60;;;5.10;96.70;;;8.25;51.23;98773.94;5038557;28;20262;-59
2022/12/27 10:18:43;;;;;;;3.03;1.80;;;5.20;94.90;;;8.33;50.69;98776.00;5039709;28;20051;-59
2022/12/27 10:21:22;;;;;;;4.23;1.50;;;5.30;96.00;;;8.38;50.81;98773.84;5038177;28;20055;-59
2022/12/27 10:24:15;;;;;;;4.80;1.30;;;5.30;94.50;;;8.45;50.89;98777.72;5044424;28;20354;-60
2022/12/27 10:26:43;;;;;;;3.00;1.73;;;5.40;95.50;;;8.55;51.06;98778.72;5044093;28;20049;-59
2022/12/27 10:29:23;;;;;;;3.37;2.00;;;5.40;95.40;;;8.57;50.92;98770.59;5045040;28;20251;-60
2022/12/27 10:31:51;;;;;;;4.90;1.70;;;5.40;95.00;;;8.64;50.52;98788.56;5044321;28;20045;-59
2022/12/27 10:34:23;;;;;;;5.07;1.43;;;5.50;96.00;;;8.69;50.59;98780.25;5043393;28;20049;-60
2022/12/27 10:36:52;;;;;;;3.73;1.33;;;5.60;95.90;;;8.74;50.71;98787.84;5044765;28;20044;-59
2022/12/27 10:39:29;;;;;;;2.57;1.70;;;5.60;95.00;;;8.77;50.62;98790.28;5045017;28;20049;-60
2022/12/27 10:42:44;;;;;;;4.40;1.40;;;5.60;94.90;;;8.76;50.93;98784.13;5036898;28;20041;-60
2022/12/27 10:45:38;;;;;;;4.03;1.53;;;5.70;94.50;;;8.85;50.89;98787.84;5038967;28;20081;-59
2022/12/27 10:48:25;;;;;;;2.37;1.13;;;5.70;94.70;;;8.85;50.42;98778.06;5036585;28;20243;-60
2022/12/27 10:51:09;;;;;;;4.33;1.93;;;5.80;91.70;;;8.87;50.20;98769.97;5032579;28;20061;-60
2022/12/27 10:53:57;;;;;;;1.87;1.17;;;5.80;92.30;;;8.91;50.54;98771.41;5042208;28;20045;-59
2022/12/27 10:56:38;;;;;;;3.20;2.23;;;5.80;92.40;;;8.96;50.16;98771.06;5042558;28;20061;-59
2022/12/27 10:59:26;;;;;;;2.60;1.20;;;5.80;93.50;;;9.01;50.22;98776.84;5036443;28;20232;-59
2022/12/27 11:02:00;;;;;;;3.83;1.07;;;5.90;91.30;;;9.07;50.10;98771.03;5044100;28;20045;-59
2022/12/27 11:04:30;;;;;;;10.87;6.40;;;6.00;92.00;;;9.12;50.31;98768.00;5044094;28;20047;-59
2022/12/27 11:06:58;;;;;;;4.80;2.90;;;6.10;91.80;;;9.18;50.16;98767.50;5036630;28;20057;-60
2022/12/27 11:09:43;;;;;;;2.50;1.77;;;6.10;92.30;;;9.21;50.15;98765.44;5044444;28;20053;-60
2022/12/27 11:12:31;;;;;;;3.83;1.40;;;6.10;90.80;;;9.25;49.80;98772.19;5038374;28;20053;-60
2022/12/27 11:15:10;;;;;;;3.37;1.40;;;6.10;89.40;;;9.27;49.57;98769.44;5043367;28;20049;-60
2022/12/27 11:17:55;;;;;;;6.67;2.73;;;6.20;87.50;;;9.26;49.77;98771.22;5044063;28;20045;-60
2022/12/27 11:20:37;;;;;;;3.30;3.00;;;6.20;89.40;;;9.33;49.50;98762.75;5043004;28;20052;-60
2022/12/27 11:23:14;;;;;;;4.40;1.43;;;6.30;89.40;;;9.29;49.69;98764.00;5035254;28;20057;-59
2022/12/27 11:25:58;;;;;;;2.50;1.47;;;6.30;88.40;;;9.34;50.03;98765.28;5044053;28;20047;-59
2022/12/27 11:28:46;;;;;;;1.80;1.42;;;6.30;87.80;;;9.40;49.73;98763.94;5042964;28;20052;-60
2022/12/27 11:31:18;;;;;;;5.67;1.87;;;6.40;87.50;;;9.46;49.64;98766.09;5036429;28;20053;-60
2022/12/27 11:33:51;;;;;;;4.30;1.60;;;6.40;88.30;;;9.49;49.54;98762.34;5026266;28;20221;-60
2022/12/27 11:36:26;;;;;;;3.27;2.23;;;6.40;87.80;;;9.54;49.35;98762.78;5042691;28;20044;-60
2022/12/27 11:38:54;;;;;;;1.90;1.37;;;6.50;86.70;;;9.59;49.48;98769.41;5043652;28;20243;-60
2022/12/27 11:41:53;;;;;;;1.67;1.57;;;6.50;87.50;;;9.67;49.99;98768.78;5043555;28;20370;-60
2022/12/27 11:44:30;;;;;;;2.57;1.53;;;6.60;86.70;;;9.66;49.44;98756.47;5037951;28;20261;-61
2022/12/27 11:47:34;;;;;;;3.30;1.20;;;6.70;86.10;;;9.46;48.79;98755.47;5043229;28;20049;-62
2022/12/27 11:50:31;;;;;;;7.53;1.67;;;6.70;82.80;;;9.71;49.63;98761.38;5031278;28;20058;-62
2022/12/27 11:53:21;;;;;;;4.57;1.53;;;6.70;85.60;;;9.70;49.21;98759.72;5042621;28;20390;-61
2022/12/27 11:56:07;;;;;;;2.93;1.77;;;6.80;85.40;;;9.65;49.84;98758.28;5043189;28;20041;-62
2022/12/27 11:59:02;;;;;;;3.97;1.30;;;6.90;85.10;;;9.73;49.57;98764.75;5042759;28;20047;-60
2022/12/27 12:02:14;;;;;;;2.20;1.27;;;7.00;83.70;;;9.92;49.45;98762.22;5039244;28;20050;-60
2022/12/27 12:05:12;;;;;;;4.20;1.83;;;7.10;81.60;;;10.07;49.20;98759.25;5058257;28;20084;-60
2022/12/27 12:08:17;;;;;;;3.03;0.93;;;7.20;82.20;;;9.65;47.86;98755.63;5041955;28;20059;-61
2022/12/27 12:10:59;;;;;;;2.92;1.23;;;7.10;77.40;;;9.81;48.25;98746.38;5043430;28;20051;-61
2022/12/27 12:14:20;;;;;;;5.13;1.30;;;7.20;77.00;;;9.12;47.93;98757.38;5042663;28;20047;-60
2022/12/27 12:17:13;;;;;;;3.43;1.27;;;7.10;75.40;;;9.67;48.02;98758.13;5040047;28;20041;-61
2022/12/27 12:19:58;;;;;;;1.80;1.10;;;7.10;78.00;;;10.09;48.43;98754.66;5042870;28;20339;-61
2022/12/27 12:23:14;;;;;;;2.40;1.40;;;7.30;78.60;;;9.83;47.87;98753.22;5042299;28;20045;-61
2022/12/27 12:26:21;;;;;;;2.30;0.80;;;7.30;77.40;;;10.11;48.17;98753.53;5046171;28;20051;-61
2022/12/27 12:29:14;;;;;;;4.93;1.90;;;7.30;77.20;;;10.32;48.21;98758.03;5042582;28;20233;-61
2022/12/27 12:32:18;;;;;;;7.60;3.03;;;7.40;77.50;;;10.37;47.10;98751.34;5041308;28;20049;-61
2022/12/27 12:35:17;;;;;;;4.45;2.10;;;7.50;75.30;;;10.47;47.75;98761.16;5042701;28;20049;-60
2022/12/27 12:38:10;;;;;;;3.60;1.97;;;7.60;76.00;;;10.60;47.62;98757.34;5042463;28;20029;-61
2022/12/27 12:40:56;;;;;;;3.10;1.37;;;7.70;77.50;;;10.70;47.07;98752.03;5042339;28;20068;-60
2022/12/27 12:43:55;;;;;;;3.13;1.23;;;7.80;77.20;;;10.60;47.07;98753.81;5042094;28;20041;-60
2022/12/27 12:46:27;;;;;;;2.43;0.93;;;7.70;74.70;;;10.17;46.65;98754.84;5035993;28;20377;-60
2022/12/27 12:49:24;;;;;;;3.73;1.20;;;7.50;73.30;;;10.07;47.29;98752.13;5041676;28;20055;-60
2022/12/27 12:51:58;;;;;;;1.80;1.20;;;7.40;74.30;;;10.25;46.66;98750.56;5041965;28;20061;-60
2022/12/27 12:54:56;;;;;;;3.50;1.10;;;7.50;74.20;;;10.14;47.43;98755.09;5042512;28;20049;-60
2022/12/27 12:58:05;;;;;;;4.03;1.60;;;7.50;74.50;;;10.49;46.91;98762.75;5036006;28;20041;-60
2022/12/27 13:00:57;;;;;;;2.80;1.23;;;7.60;74.40;;;10.60;46.66;98756.47;5038008;28;20048;-60